createdAt,value
2023-06-29T00:01:11.754Z,100.00
2023-06-29T00:06:37.673Z,100.00
2023-06-29T00:11:40.935Z,100.00
2023-06-29T00:16:44.581Z,100.00
2023-06-29T00:21:49.547Z,100.00
2023-06-29T00:26:52.744Z,100.00
2023-06-29T00:31:55.875Z,100.00
2023-06-29T00:36:59.327Z,100.00
2023-06-29T00:42:04.052Z,100.00
2023-06-29T00:47:08.164Z,100.00
2023-06-29T00:52:11.423Z,100.00
2023-06-29T00:57:14.618Z,100.00
2023-06-29T01:02:18.621Z,99.99
2023-06-29T01:07:31.666Z,100.00
2023-06-29T01:12:35.915Z,100.00
2023-06-29T01:17:40.740Z,100.00
2023-06-29T01:23:00.238Z,100.00
2023-06-29T01:28:08.082Z,100.00
2023-06-29T01:33:12.295Z,100.00
2023-06-29T01:38:30.223Z,100.00
2023-06-29T01:43:34.241Z,100.00
2023-06-29T01:48:38.921Z,100.00
2023-06-29T01:53:42.108Z,100.00
2023-06-29T01:58:45.518Z,100.00
2023-06-29T02:03:49.530Z,100.00
2023-06-29T02:08:52.850Z,100.00
2023-06-29T02:14:13.309Z,100.00
2023-06-29T02:19:16.627Z,100.00
2023-06-29T02:24:21.322Z,100.00
2023-06-29T02:29:24.601Z,100.00
2023-06-29T02:34:31.272Z,100.00
2023-06-29T02:39:34.700Z,100.00
2023-06-29T02:44:38.048Z,100.00
2023-06-29T02:49:41.433Z,100.00
2023-06-29T02:54:44.826Z,100.00
2023-06-29T02:59:48.219Z,100.00
2023-06-29T03:04:51.473Z,100.00
2023-06-29T03:09:54.945Z,100.00
2023-06-29T03:14:58.275Z,100.00
2023-06-29T03:20:01.714Z,100.00
2023-06-29T03:25:07.012Z,100.00
2023-06-29T03:30:10.747Z,100.00
2023-06-29T03:35:14.300Z,100.00
2023-06-29T03:40:17.864Z,100.00
2023-06-29T03:45:21.122Z,100.00
2023-06-29T03:50:24.467Z,100.00
2023-06-29T03:55:27.906Z,100.00
2023-06-29T04:00:31.337Z,100.00
2023-06-29T04:05:34.612Z,100.00
2023-06-29T04:10:37.983Z,100.00
2023-06-29T04:15:41.517Z,100.00
2023-06-29T04:20:45.014Z,100.00
2023-06-29T04:25:48.693Z,100.00
2023-06-29T04:30:52.217Z,100.00
2023-06-29T04:35:56.332Z,100.00
2023-06-29T04:41:05.541Z,100.00
2023-06-29T04:46:09.271Z,100.00
2023-06-29T04:51:14.283Z,100.00
2023-06-29T04:56:17.781Z,100.00
2023-06-29T05:01:22.045Z,100.00
2023-06-29T05:06:25.516Z,100.00
2023-06-29T05:11:28.849Z,100.00
2023-06-29T05:16:32.198Z,100.00
2023-06-29T05:21:35.534Z,100.00
2023-06-29T05:26:38.830Z,100.00
2023-06-29T05:31:42.031Z,100.00
2023-06-29T05:36:45.268Z,100.00
2023-06-29T05:41:49.557Z,100.00
2023-06-29T05:46:52.875Z,100.00
2023-06-29T05:51:56.214Z,100.00
2023-06-29T05:56:59.805Z,100.00
2023-06-29T06:02:03.723Z,99.33
2023-06-29T06:07:07.365Z,99.42
2023-06-29T06:12:10.938Z,99.76
2023-06-29T06:17:14.526Z,98.36
2023-06-29T06:22:17.831Z,98.24
2023-06-29T06:27:21.143Z,98.01
2023-06-29T06:32:25.791Z,97.47
2023-06-29T06:37:29.237Z,97.07
2023-06-29T06:42:32.458Z,96.66
2023-06-29T06:47:39.077Z,96.57
2023-06-29T06:52:42.282Z,96.25
2023-06-29T06:57:45.617Z,96.06
2023-06-29T07:02:49.049Z,94.15
2023-06-29T07:07:54.873Z,93.54
2023-06-29T07:12:58.144Z,93.27
2023-06-29T07:18:01.560Z,91.79
2023-06-29T07:28:11.373Z,89.49
2023-06-29T07:33:14.652Z,88.27
2023-06-29T07:38:18.146Z,85.48
2023-06-29T07:43:21.425Z,85.26
2023-06-29T07:48:24.857Z,84.30
2023-06-29T07:53:28.344Z,82.91
2023-06-29T08:03:55.429Z,79.36
2023-06-29T08:09:01.994Z,77.46
2023-06-29T08:14:06.302Z,76.07
2023-06-29T08:19:09.997Z,75.10
2023-06-29T08:24:15.673Z,74.45
2023-06-29T08:29:21.184Z,73.49
2023-06-29T08:34:24.474Z,72.49
2023-06-29T08:39:27.772Z,72.76
2023-06-29T08:44:31.339Z,71.00
2023-06-29T08:49:36.674Z,70.84
2023-06-29T08:54:40.526Z,69.64
2023-06-29T08:59:45.260Z,68.06
2023-06-29T09:04:48.426Z,68.07
2023-06-29T09:09:51.715Z,66.34
2023-06-29T09:14:59.588Z,65.50
2023-06-29T09:20:14.853Z,65.48
2023-06-29T09:25:32.213Z,64.40
2023-06-29T09:30:39.484Z,62.92
2023-06-29T09:35:48.655Z,61.86
2023-06-29T09:40:55.491Z,61.11
2023-06-29T09:46:09.932Z,59.45
2023-06-29T09:51:24.012Z,58.55
2023-06-29T09:56:28.399Z,58.03
2023-06-29T10:01:32.072Z,57.38
2023-06-29T10:06:44.975Z,58.23
2023-06-29T10:11:54.780Z,56.10
2023-06-29T10:16:58.305Z,56.22
2023-06-29T10:22:12.506Z,55.76
2023-06-29T10:27:17.181Z,54.65
2023-06-29T10:32:29.730Z,54.02
2023-06-29T10:37:35.144Z,53.26
2023-06-29T10:42:38.386Z,53.01
2023-06-29T10:47:42.270Z,51.95
2023-06-29T10:52:49.266Z,50.12
2023-06-29T10:57:52.962Z,50.74
2023-06-29T11:02:56.375Z,50.22
2023-06-29T11:07:59.995Z,50.10
2023-06-29T11:13:08.809Z,49.31
2023-06-29T11:18:12.099Z,49.10
2023-06-29T11:23:15.323Z,49.62
2023-06-29T11:28:18.722Z,48.95
2023-06-29T11:38:46.435Z,49.30
2023-06-29T11:43:53.201Z,48.30
2023-06-29T11:48:59.624Z,48.26
2023-06-29T11:54:03.051Z,48.42
2023-06-29T11:59:08.487Z,48.68
2023-06-29T12:04:14.453Z,48.13
2023-06-29T12:09:17.934Z,47.82
2023-06-29T12:14:22.169Z,48.20
2023-06-29T12:19:34.120Z,47.47
2023-06-29T12:24:37.776Z,47.71
2023-06-29T12:29:44.325Z,48.27
2023-06-29T12:34:47.554Z,47.72
2023-06-29T12:39:50.792Z,46.86
2023-06-29T12:44:54.337Z,45.53
2023-06-29T12:49:58.350Z,46.51
2023-06-29T12:55:01.719Z,46.14
2023-06-29T13:00:06.583Z,47.36
2023-06-29T13:05:09.895Z,47.55
2023-06-29T13:10:13.328Z,47.28
2023-06-29T13:15:16.927Z,46.84
2023-06-29T13:20:20.643Z,46.19
2023-06-29T13:25:24.564Z,46.39
2023-06-29T13:30:28.423Z,46.07
2023-06-29T13:35:31.617Z,45.79
2023-06-29T13:40:35.335Z,46.20
2023-06-29T13:45:39.512Z,45.72
2023-06-29T13:50:42.866Z,45.26
2023-06-29T13:55:47.182Z,45.13
2023-06-29T14:00:51.479Z,44.78
2023-06-29T14:05:54.683Z,44.98
2023-06-29T14:10:58.437Z,44.75
2023-06-29T14:16:01.707Z,44.58
2023-06-29T14:21:04.988Z,45.79
2023-06-29T14:26:08.310Z,49.38
2023-06-29T14:31:11.617Z,52.03
2023-06-29T14:36:14.900Z,54.09
2023-06-29T14:41:18.110Z,55.19
2023-06-29T14:46:21.385Z,55.54
2023-06-29T14:51:24.815Z,55.87
2023-06-29T14:56:28.023Z,55.62
2023-06-29T15:01:32.586Z,55.20
2023-06-29T15:06:36.095Z,55.21
2023-06-29T15:11:39.328Z,55.04
2023-06-29T15:16:43.352Z,54.54
2023-06-29T15:21:46.819Z,54.32
2023-06-29T15:26:51.008Z,54.44
2023-06-29T15:31:54.263Z,53.98
2023-06-29T15:36:58.073Z,53.53
2023-06-29T15:42:01.522Z,52.97
2023-06-29T15:47:07.495Z,51.84
2023-06-29T15:52:11.071Z,50.89
2023-06-29T15:57:27.205Z,50.57
2023-06-29T16:02:31.734Z,50.65
2023-06-29T16:07:38.389Z,50.64
2023-06-29T16:12:42.677Z,50.77
2023-06-29T16:17:46.474Z,50.82
2023-06-29T16:22:50.239Z,50.59
2023-06-29T16:27:54.416Z,50.83
2023-06-29T16:32:57.665Z,50.71
2023-06-29T16:38:04.961Z,50.66
2023-06-29T16:43:08.713Z,50.42
2023-06-29T16:48:12.901Z,50.76
2023-06-29T16:53:16.158Z,51.44
2023-06-29T16:58:20.169Z,51.58
2023-06-29T17:03:23.521Z,51.69
2023-06-29T17:08:26.844Z,51.91
2023-06-29T17:13:30.125Z,52.04
2023-06-29T17:18:35.810Z,52.25
2023-06-29T17:23:39.383Z,52.60
2023-06-29T17:28:42.548Z,52.85
2023-06-29T17:33:54.760Z,52.89
2023-06-29T17:38:59.263Z,53.29
2023-06-29T17:44:02.571Z,53.66
2023-06-29T17:49:05.976Z,53.62
2023-06-29T17:54:09.269Z,54.04
2023-06-29T17:59:12.512Z,54.05
2023-06-29T18:04:15.962Z,54.11
2023-06-29T18:09:19.252Z,54.84
2023-06-29T18:14:22.483Z,56.08
2023-06-29T18:19:25.734Z,56.90
2023-06-29T18:24:29.419Z,56.65
2023-06-29T18:29:32.653Z,56.39
2023-06-29T18:34:35.953Z,56.11
2023-06-29T18:39:39.921Z,56.20
2023-06-29T18:44:43.965Z,55.83
2023-06-29T18:49:52.355Z,55.38
2023-06-29T18:54:57.415Z,55.28
2023-06-29T19:00:02.387Z,55.25
2023-06-29T19:05:06.422Z,57.41
2023-06-29T19:10:10.290Z,58.52
2023-06-29T19:15:14.855Z,59.53
2023-06-29T19:20:18.362Z,60.95
2023-06-29T19:25:21.925Z,62.64
2023-06-29T19:30:25.226Z,63.71
2023-06-29T19:35:29.181Z,64.80
2023-06-29T19:40:32.578Z,65.85
2023-06-29T19:45:36.013Z,66.64
2023-06-29T19:50:39.379Z,67.29
2023-06-29T19:55:42.926Z,67.94
2023-06-29T20:00:47.079Z,68.71
2023-06-29T20:05:50.775Z,69.40
2023-06-29T20:10:54.109Z,69.90
2023-06-29T20:15:57.764Z,70.41
2023-06-29T20:21:01.805Z,70.78
2023-06-29T20:26:05.305Z,70.95
2023-06-29T20:31:08.661Z,71.45
2023-06-29T20:36:14.063Z,71.72
2023-06-29T20:41:17.584Z,71.96
2023-06-29T20:46:21.099Z,72.24
2023-06-29T20:51:24.669Z,72.62
2023-06-29T20:56:28.029Z,72.81
2023-06-29T21:01:31.496Z,73.38
2023-06-29T21:06:35.249Z,73.90
2023-06-29T21:11:39.794Z,74.32
2023-06-29T21:16:45.877Z,74.78
2023-06-29T21:21:49.346Z,75.02
2023-06-29T21:26:53.841Z,75.38
2023-06-29T21:32:03.864Z,75.49
2023-06-29T21:37:11.344Z,75.72
2023-06-29T21:42:14.731Z,75.87
2023-06-29T21:47:17.989Z,76.08
2023-06-29T21:52:21.613Z,76.13
2023-06-29T21:57:24.909Z,76.22
2023-06-29T22:02:28.265Z,76.68
2023-06-29T22:07:33.030Z,77.61
2023-06-29T22:12:44.296Z,78.30
2023-06-29T22:17:50.354Z,79.25
2023-06-29T22:22:54.041Z,79.60
2023-06-29T22:27:57.200Z,80.32
2023-06-29T22:33:00.544Z,80.75
2023-06-29T22:38:08.038Z,81.22
2023-06-29T22:43:11.765Z,81.72
2023-06-29T22:48:14.974Z,81.98
2023-06-29T22:53:18.406Z,82.22
2023-06-29T22:58:25.597Z,82.15
2023-06-29T23:03:29.139Z,82.13
2023-06-29T23:08:33.096Z,82.09
2023-06-29T23:13:41.629Z,82.16
2023-06-29T23:18:44.804Z,82.10
2023-06-29T23:23:48.272Z,82.24
2023-06-29T23:28:54.278Z,82.46
2023-06-29T23:33:57.568Z,82.60
2023-06-29T23:39:00.826Z,82.57
2023-06-29T23:44:07.681Z,83.01
2023-06-29T23:49:19.514Z,83.55
2023-06-29T23:54:23.217Z,84.03
2023-06-29T23:59:26.545Z,84.09
